createdAt,value
2017-04-04T04:36:24.023Z,24.30
2017-04-04T04:37:21.603Z,24.90
2017-04-04T04:38:20.103Z,27.78
2017-04-04T04:39:17.610Z,29.25
2017-04-04T04:40:15.819Z,28.38
2017-04-04T04:41:13.284Z,29.47
2017-04-04T04:42:10.748Z,30.92
2017-04-04T04:43:08.951Z,30.57
2017-04-04T04:44:06.452Z,31.28
2017-04-04T04:45:03.909Z,30.68
2017-04-04T04:46:01.450Z,31.70
2017-04-04T04:46:59.639Z,32.48
2017-04-04T04:47:57.099Z,33.90
2017-04-04T04:48:54.740Z,33.53
2017-04-04T04:49:52.175Z,35.80
2017-04-04T04:50:49.662Z,35.72
2017-04-04T04:51:47.869Z,34.55
2017-04-04T04:52:45.331Z,36.25
2017-04-04T04:53:42.815Z,34.37
2017-04-04T04:54:40.334Z,34.48
2017-04-04T04:55:38.655Z,35.85
2017-04-04T04:56:36.201Z,36.12
2017-04-04T04:57:33.856Z,36.52
2017-04-04T04:58:31.387Z,36.70
2017-04-04T04:59:28.855Z,36.93
2017-04-04T05:00:26.360Z,36.12
2017-04-04T05:01:23.871Z,37.23
2017-04-04T05:02:21.381Z,37.98
2017-04-04T05:03:18.839Z,40.53
2017-04-04T05:04:17.148Z,40.02
2017-04-04T05:05:14.687Z,40.28
2017-04-04T05:06:12.147Z,38.77
2017-04-04T05:07:09.629Z,42.03
2017-04-04T05:08:08.239Z,41.85
2017-04-04T05:09:05.599Z,41.38
2017-04-04T05:10:03.096Z,40.90
2017-04-04T05:11:00.563Z,39.70
2017-04-04T05:11:58.113Z,39.00
2017-04-04T05:12:55.604Z,38.57
2017-04-04T05:13:53.811Z,40.32
2017-04-04T05:14:51.316Z,40.22
2017-04-04T05:15:48.819Z,40.70
2017-04-04T05:16:46.286Z,41.52
2017-04-04T05:17:44.539Z,39.95
2017-04-04T05:18:42.743Z,39.88
2017-04-04T05:19:40.211Z,40.28
2017-04-04T05:20:37.687Z,42.80
2017-04-04T05:21:35.897Z,40.47
2017-04-04T05:22:33.364Z,43.42
2017-04-04T05:23:30.833Z,41.05
2017-04-04T05:24:29.037Z,43.55
2017-04-04T05:25:26.515Z,43.38
2017-04-04T05:26:24.726Z,41.15
2017-04-04T05:27:22.188Z,37.18
2017-04-04T05:28:19.654Z,40.65
2017-04-04T05:29:17.112Z,41.45
2017-04-04T05:30:15.695Z,39.85
2017-04-04T05:31:13.155Z,40.78
2017-04-04T05:32:10.773Z,39.87
2017-04-04T05:33:08.965Z,40.17
2017-04-04T05:34:06.435Z,39.57
2017-04-04T05:35:03.898Z,38.78
2017-04-04T05:36:02.124Z,39.72
2017-04-04T05:36:59.584Z,39.22
2017-04-04T05:37:57.932Z,38.78
2017-04-04T05:38:55.387Z,41.87
2017-04-04T05:39:52.921Z,41.38
2017-04-04T05:40:50.367Z,40.52
2017-04-04T05:41:48.802Z,40.33
2017-04-04T05:42:46.172Z,37.17
2017-04-04T05:43:44.602Z,40.43
2017-04-04T05:44:41.967Z,39.60
2017-04-04T05:45:39.431Z,42.52
2017-04-04T05:46:37.650Z,42.75
2017-04-04T05:47:35.111Z,39.10
2017-04-04T05:48:32.608Z,39.52
2017-04-04T05:49:30.080Z,37.93
2017-04-04T05:50:27.555Z,38.23
2017-04-04T05:51:25.771Z,39.68
2017-04-04T05:52:23.231Z,38.88
2017-04-04T05:53:20.695Z,36.58
2017-04-04T05:54:18.904Z,38.88
2017-04-04T05:55:16.367Z,39.23
2017-04-04T05:56:13.848Z,37.72
2017-04-04T17:29:10.771Z,15.04
2017-04-04T17:30:09.062Z,13.43
2017-04-04T17:31:06.535Z,14.40
2017-04-04T17:32:03.999Z,13.63
2017-04-04T17:33:02.231Z,12.83
2017-04-04T17:33:59.703Z,15.68
2017-04-04T17:34:57.918Z,12.72
2017-04-04T17:35:55.395Z,14.82
2017-04-04T17:36:53.633Z,13.63
2017-04-04T17:37:52.122Z,13.80
2017-04-04T17:38:50.335Z,12.83
2017-04-04T17:39:47.872Z,13.65
2017-04-04T17:40:45.399Z,13.12
2017-04-04T17:41:42.879Z,12.80
2017-04-04T17:42:40.373Z,12.85
2017-04-04T17:43:37.834Z,12.58
2017-04-04T17:44:35.299Z,12.85
2017-04-04T17:45:32.762Z,11.58
2017-04-04T17:46:30.979Z,12.35
2017-04-04T17:47:28.451Z,13.07
2017-04-04T17:48:25.935Z,11.25
2017-04-04T17:49:23.407Z,12.62
2017-04-04T17:50:20.875Z,12.08
2017-04-04T17:51:18.341Z,11.92
2017-04-04T17:52:16.548Z,12.12
2017-04-04T17:53:14.031Z,12.05
2017-04-04T17:54:12.234Z,11.73
2017-04-04T17:55:09.707Z,12.05
2017-04-04T17:56:07.186Z,12.10
2017-04-04T17:57:04.671Z,10.75
2017-04-04T17:58:02.164Z,11.10
2017-04-04T17:59:00.367Z,11.83
2017-04-04T17:59:57.918Z,12.98
2017-04-04T18:00:55.374Z,11.15
2017-04-04T18:01:52.896Z,11.55
2017-04-04T18:02:50.440Z,11.60
2017-04-04T18:03:47.982Z,11.93
2017-04-04T18:04:45.435Z,12.37
2017-04-04T18:05:42.900Z,12.42
2017-04-04T18:06:41.111Z,11.63
2017-04-04T18:07:38.580Z,12.80
2017-04-04T18:09:43.290Z,11.30
2017-04-04T18:10:40.846Z,11.50
2017-04-04T18:11:38.310Z,10.97
2017-04-04T18:12:36.528Z,10.52
2017-04-04T18:13:34.009Z,10.83
2017-04-04T18:14:32.227Z,9.70
2017-04-04T18:15:29.699Z,10.62
2017-04-04T18:16:27.907Z,9.27
2017-04-04T18:17:25.366Z,9.40
2017-04-04T18:18:22.854Z,9.43
2017-04-04T18:19:21.059Z,8.47
2017-04-04T18:20:18.536Z,9.18
2017-04-04T18:21:16.742Z,9.03
2017-04-04T18:22:14.215Z,8.93
2017-04-04T18:23:11.698Z,9.42
2017-04-04T18:24:09.171Z,9.10
2017-04-04T18:25:06.649Z,7.70
2017-04-04T18:26:04.116Z,8.42
2017-04-04T18:27:02.323Z,7.92
2017-04-04T18:27:59.802Z,7.08
2017-04-04T18:28:58.007Z,7.33
2017-04-04T18:29:55.474Z,7.45
2017-04-04T18:30:52.956Z,6.98
2017-04-04T18:31:51.161Z,6.90
2017-04-04T18:32:48.630Z,6.37
2017-04-04T18:33:46.114Z,6.58
2017-04-04T18:34:44.303Z,6.17
2017-04-04T18:35:41.766Z,6.35
2017-04-04T18:36:40.198Z,6.22
2017-04-04T18:37:37.568Z,6.88
2017-04-04T18:38:35.051Z,7.10
2017-04-04T18:39:32.599Z,6.32
2017-04-04T18:40:30.058Z,6.20
2017-04-04T18:41:27.523Z,5.50
2017-04-04T18:42:24.983Z,6.23
2017-04-04T18:43:22.446Z,6.20
2017-04-04T18:44:20.651Z,6.10
2017-04-04T18:45:18.124Z,6.62
2017-04-04T18:46:15.599Z,6.33
2017-04-04T18:47:13.062Z,6.32
2017-04-04T18:48:10.519Z,6.20
2017-04-04T18:49:08.003Z,5.73
2017-04-04T18:50:06.213Z,6.75
2017-04-04T18:51:03.678Z,6.43
2017-04-04T18:52:01.148Z,7.48
2017-04-04T18:52:59.375Z,6.53
2017-04-04T18:53:56.835Z,7.07
2017-04-04T18:54:55.042Z,7.52
2017-04-04T18:55:52.506Z,7.27
2017-04-04T18:56:49.979Z,6.55
2017-04-04T18:57:47.440Z,7.08
2017-04-04T18:58:45.638Z,6.82
2017-04-04T18:59:43.104Z,6.10
2017-04-04T19:00:40.567Z,7.02
2017-04-04T19:01:38.772Z,6.12
2017-04-04T19:02:36.239Z,6.02
2017-04-04T19:03:33.718Z,6.67
2017-04-04T19:04:31.182Z,6.50
2017-04-04T19:05:28.643Z,6.38
2017-04-04T19:06:26.102Z,6.97
2017-04-04T19:07:23.567Z,7.70
2017-04-04T19:08:21.775Z,7.10
2017-04-04T19:09:19.239Z,7.35
2017-04-04T19:10:16.706Z,7.03
2017-04-04T19:11:14.913Z,6.77
2017-04-04T19:12:12.372Z,7.23
2017-04-04T19:13:09.867Z,7.33
2017-04-04T19:14:07.327Z,7.92
2017-04-04T19:15:04.795Z,7.32
2017-04-04T19:16:02.261Z,6.88
2017-04-04T19:16:59.726Z,7.58
2017-04-04T19:17:57.186Z,7.52
2017-04-04T19:18:54.676Z,6.58
2017-04-04T19:19:53.126Z,6.10
2017-04-04T19:20:50.486Z,5.75
2017-04-04T19:21:48.922Z,6.05
2017-04-04T19:22:46.283Z,5.67
2017-04-04T19:23:43.763Z,5.82
2017-04-04T19:24:41.232Z,6.02
2017-04-04T19:25:38.691Z,6.43
2017-04-04T19:26:36.159Z,5.68
2017-04-04T19:27:34.370Z,5.92
2017-04-04T19:28:31.839Z,6.70
2017-04-04T19:29:29.302Z,6.45
2017-04-04T19:30:27.507Z,6.10
2017-04-04T19:31:24.976Z,6.05
2017-04-04T19:32:22.440Z,6.13
2017-04-04T19:33:20.640Z,6.22
2017-04-04T19:34:18.122Z,6.38
2017-04-04T19:35:15.584Z,6.32
2017-04-04T19:36:13.783Z,7.27
2017-04-04T19:37:11.243Z,5.92
2017-04-04T19:38:08.711Z,7.22
2017-04-04T19:39:06.195Z,7.07
2017-04-04T19:40:03.674Z,7.22
2017-04-04T19:41:01.124Z,7.10
2017-04-04T19:41:58.589Z,8.08
2017-04-04T19:42:56.794Z,8.48
2017-04-04T19:43:54.295Z,8.52
2017-04-04T19:44:52.503Z,8.28
2017-04-04T19:45:49.975Z,8.60
2017-04-04T19:46:47.435Z,9.08
2017-04-04T19:47:45.651Z,8.47
2017-04-04T19:48:43.111Z,10.15
2017-04-04T19:49:40.595Z,8.60
2017-04-04T19:50:38.063Z,9.25
2017-04-04T19:51:35.531Z,9.07
2017-04-04T19:52:33.015Z,9.12
2017-04-04T19:53:31.216Z,8.45
2017-04-04T19:54:28.687Z,9.30
2017-04-04T19:55:26.895Z,8.05
2017-04-04T19:56:24.351Z,8.92
2017-04-04T19:57:21.821Z,9.47
2017-04-04T19:58:19.286Z,9.22
2017-04-04T19:59:16.772Z,9.98
2017-04-04T20:00:14.243Z,10.90
2017-04-04T20:01:12.455Z,10.23
2017-04-04T20:02:09.922Z,11.43
2017-04-04T20:03:07.402Z,11.28
2017-04-04T20:04:05.891Z,11.77
2017-04-04T20:05:03.358Z,11.12
2017-04-04T20:06:00.829Z,11.10
2017-04-04T20:06:58.303Z,11.68
2017-04-04T20:07:55.770Z,12.73
2017-04-04T20:08:53.280Z,12.00
2017-04-04T20:09:51.503Z,11.98
2017-04-04T20:10:49.945Z,11.80
2017-04-04T20:11:47.305Z,11.47
2017-04-04T20:12:44.770Z,10.85
2017-04-04T20:13:43.059Z,11.25
2017-04-04T20:14:40.586Z,11.43
2017-04-04T20:15:38.766Z,10.32
2017-04-04T20:16:36.238Z,11.53
2017-04-04T20:17:33.704Z,12.03
2017-04-04T20:18:31.915Z,11.70
2017-04-04T20:19:29.418Z,11.75
2017-04-04T20:20:27.639Z,11.30
2017-04-04T20:21:25.106Z,13.15
2017-04-04T20:22:23.320Z,12.12
2017-04-04T20:23:20.799Z,11.48
2017-04-04T20:24:18.259Z,11.57
2017-04-04T20:25:16.487Z,11.95
2017-04-04T20:26:13.959Z,11.45
2017-04-04T20:27:12.171Z,11.50
2017-04-04T20:28:09.648Z,11.92
2017-04-04T20:29:07.862Z,11.75
2017-04-04T20:30:05.347Z,12.43
2017-04-04T20:31:03.559Z,11.55
2017-04-04T20:32:01.048Z,11.87
2017-04-04T20:32:58.517Z,11.42
2017-04-04T20:33:56.215Z,12.33
2017-04-04T20:34:53.670Z,11.65
2017-04-04T20:35:51.899Z,11.33
2017-04-04T20:36:49.370Z,10.57
2017-04-04T20:37:47.581Z,12.03
2017-04-04T20:38:45.059Z,11.28
2017-04-04T20:39:42.535Z,10.25
2017-04-04T20:40:40.022Z,11.35
2017-04-04T20:41:37.493Z,10.83
2017-04-04T20:42:34.963Z,10.23
2017-04-04T20:43:32.448Z,10.27
2017-04-04T20:44:29.919Z,10.77
2017-04-04T20:45:28.156Z,10.98
2017-04-04T20:46:25.617Z,11.25
2017-04-04T20:47:23.831Z,11.00
2017-04-04T20:48:21.307Z,9.58
2017-04-04T20:49:19.515Z,9.87
2017-04-04T20:50:17.003Z,10.80
2017-04-04T20:51:15.212Z,10.62
2017-04-04T20:52:12.678Z,10.25
2017-04-04T20:53:10.155Z,10.92
2017-04-04T20:54:08.375Z,9.42
2017-04-04T20:55:05.842Z,10.08
2017-04-04T20:56:04.063Z,10.62
2017-04-04T20:57:01.537Z,10.60
2017-04-04T20:57:59.007Z,10.40
2017-04-04T20:58:56.474Z,10.12
2017-04-04T20:59:53.954Z,10.18
2017-04-04T21:00:51.439Z,9.65
2017-04-04T21:01:48.907Z,11.13
2017-04-04T21:02:46.382Z,10.32
2017-04-04T21:03:44.842Z,10.67
2017-04-04T21:04:42.211Z,10.05
2017-04-04T21:05:40.442Z,9.95
2017-04-04T21:06:38.658Z,9.47
2017-04-04T21:07:36.127Z,11.32
2017-04-04T21:08:33.599Z,10.45
2017-04-04T21:09:31.071Z,10.35
2017-04-04T21:10:28.561Z,10.58
2017-04-04T21:11:26.771Z,10.62
2017-04-04T21:12:24.247Z,11.87
2017-04-04T21:13:21.719Z,11.08
2017-04-04T21:14:19.191Z,10.30
2017-04-04T21:15:16.714Z,10.65
2017-04-04T21:16:14.262Z,9.85
2017-04-04T21:17:12.446Z,10.33
2017-04-04T21:18:09.915Z,10.55
2017-04-04T21:19:07.387Z,10.35
2017-04-04T21:20:04.856Z,11.28
2017-04-04T21:21:02.339Z,10.48
2017-04-04T21:21:59.818Z,10.38
2017-04-04T21:22:57.282Z,10.08
2017-04-04T21:23:54.751Z,10.97
2017-04-04T21:24:52.228Z,10.98
2017-04-04T21:25:50.454Z,9.52
2017-04-04T21:26:48.888Z,10.83
2017-04-04T21:27:46.259Z,12.95
2017-04-04T21:28:43.730Z,11.80
2017-04-04T21:29:41.944Z,11.87
2017-04-04T21:30:39.415Z,12.40
2017-04-04T21:31:37.646Z,13.18
2017-04-04T21:32:35.115Z,13.18
2017-04-04T21:33:33.331Z,12.73
2017-04-04T21:34:30.802Z,14.23
2017-04-04T21:35:28.275Z,12.60
2017-04-04T21:36:25.763Z,13.95
2017-04-04T21:37:23.235Z,13.18
2017-04-04T21:38:21.447Z,13.02
2017-04-04T21:39:18.907Z,12.98
2017-04-04T21:40:16.379Z,13.27
2017-04-04T21:41:14.596Z,13.18
2017-04-04T21:42:12.078Z,13.42
2017-04-04T21:43:10.283Z,11.98
2017-04-04T21:44:07.754Z,13.52
2017-04-04T21:46:09.115Z,12.40
2017-04-04T21:47:07.350Z,12.40
2017-04-04T21:48:04.877Z,12.50
2017-04-04T21:49:02.327Z,10.53
2017-04-04T21:49:59.791Z,10.40
2017-04-04T21:50:58.002Z,10.52
2017-04-04T21:51:55.487Z,9.05
2017-04-04T21:52:52.946Z,9.97
2017-04-04T21:53:51.153Z,8.82
2017-04-04T21:54:48.624Z,9.57
2017-04-04T21:55:46.085Z,9.63
2017-04-04T21:56:44.369Z,10.37
2017-04-04T21:57:41.831Z,9.63
2017-04-04T21:58:39.294Z,9.27
2017-04-04T21:59:36.755Z,10.37
2017-04-04T22:00:34.960Z,9.67
2017-04-04T22:01:32.438Z,9.28
2017-04-04T22:02:29.911Z,9.00
2017-04-04T22:03:28.123Z,8.93
2017-04-04T22:04:25.586Z,8.85
2017-04-04T22:05:23.051Z,8.32
2017-04-04T22:06:20.511Z,8.85
2017-04-04T22:07:17.995Z,8.18
2017-04-04T22:08:16.203Z,7.87
2017-04-04T22:09:13.667Z,8.72
2017-04-04T22:10:11.124Z,8.78
2017-04-04T22:11:08.592Z,7.70
2017-04-04T22:12:06.811Z,8.53
2017-04-04T22:13:04.271Z,8.13
2017-04-04T22:14:02.479Z,7.83
2017-04-04T22:14:59.939Z,7.20
2017-04-04T22:15:57.403Z,8.03
2017-04-04T22:16:55.115Z,9.25
2017-04-04T22:17:52.578Z,8.62
2017-04-04T22:18:51.012Z,8.20
2017-04-04T22:19:48.464Z,8.15
2017-04-04T22:20:45.895Z,8.48
2017-04-04T22:21:43.359Z,9.43
2017-04-04T22:22:40.839Z,9.52
2017-04-04T22:23:39.046Z,9.12
2017-04-04T22:24:36.555Z,9.28
2017-04-04T22:25:34.019Z,9.68
2017-04-04T22:26:31.487Z,9.07
2017-04-04T22:27:28.974Z,9.70
2017-04-04T22:28:26.438Z,8.95
2017-04-04T22:29:23.910Z,9.08
2017-04-04T22:30:21.375Z,8.03
2017-04-04T22:31:19.603Z,9.57
2017-04-04T22:32:17.055Z,9.33
2017-04-04T22:33:14.543Z,9.30
2017-04-04T22:34:12.004Z,9.47
2017-04-04T22:35:09.471Z,9.50
2017-04-04T22:36:06.935Z,9.43
2017-04-04T22:37:05.138Z,9.68
2017-04-04T22:38:02.627Z,10.37
2017-04-04T22:39:00.099Z,9.85
2017-04-04T22:39:58.307Z,9.38
2017-04-04T22:40:55.772Z,9.87
2017-04-04T22:41:53.987Z,9.85
2017-04-04T22:42:51.471Z,9.58
2017-04-04T22:43:49.676Z,9.68
2017-04-04T22:44:47.147Z,10.28
2017-04-04T22:45:44.627Z,9.55
2017-04-04T22:46:42.827Z,9.75
2017-04-04T22:47:40.291Z,10.80
2017-04-04T22:48:37.783Z,9.53
2017-04-04T22:49:35.255Z,9.05
2017-04-04T22:50:32.721Z,9.85
2017-04-04T22:51:30.194Z,9.52
2017-04-04T22:52:28.399Z,9.73
2017-04-04T22:53:26.119Z,9.78
2017-04-04T22:54:23.587Z,9.30
2017-04-04T22:55:21.055Z,9.87
2017-04-04T22:56:18.523Z,10.93
2017-04-04T22:57:16.727Z,10.48
2017-04-04T22:58:14.204Z,10.57
2017-04-04T22:59:11.683Z,10.75
2017-04-04T23:00:09.148Z,10.47
2017-04-04T23:01:06.615Z,10.77
2017-04-04T23:02:04.075Z,12.18
2017-04-04T23:03:02.287Z,11.87
2017-04-04T23:04:00.011Z,11.00
2017-04-04T23:04:57.481Z,10.77
2017-04-04T23:05:54.940Z,10.57
2017-04-04T23:06:52.402Z,10.95
2017-04-04T23:07:49.872Z,11.35
2017-04-04T23:08:48.074Z,11.42
2017-04-04T23:09:45.555Z,11.45
2017-04-04T23:10:43.027Z,10.48
2017-04-04T23:11:41.230Z,11.17
2017-04-04T23:12:38.694Z,11.10
2017-04-04T23:13:36.167Z,11.95
2017-04-04T23:14:34.388Z,11.27
2017-04-04T23:15:31.863Z,10.85
2017-04-04T23:16:30.063Z,11.68
2017-04-04T23:17:27.547Z,11.05
2017-04-04T23:18:25.768Z,11.55
2017-04-04T23:19:23.235Z,11.50
2017-04-04T23:20:20.710Z,11.32
2017-04-04T23:21:18.923Z,12.72
2017-04-04T23:22:16.387Z,10.73
2017-04-04T23:23:13.857Z,11.37
2017-04-04T23:24:11.327Z,13.13
2017-04-04T23:25:08.803Z,13.53
2017-04-04T23:26:06.267Z,11.65
2017-04-04T23:27:04.474Z,12.75
2017-04-04T23:28:01.941Z,12.50
2017-04-04T23:28:59.398Z,11.33
2017-04-04T23:29:57.639Z,11.83
2017-04-04T23:30:55.123Z,10.27
2017-04-04T23:31:52.594Z,12.68
2017-04-04T23:32:50.059Z,11.60
2017-04-04T23:33:47.527Z,11.50
2017-04-04T23:34:45.726Z,11.05
2017-04-04T23:35:43.219Z,12.48
2017-04-04T23:36:40.684Z,11.97
2017-04-04T23:37:38.895Z,12.30
2017-04-04T23:38:36.359Z,11.50
2017-04-04T23:39:33.830Z,12.80
2017-04-04T23:40:31.311Z,12.08
2017-04-04T23:41:28.775Z,12.30
2017-04-04T23:42:26.243Z,13.03
2017-04-04T23:43:24.455Z,12.60
2017-04-04T23:44:21.919Z,13.93
2017-04-04T23:45:19.418Z,13.15
2017-04-04T23:46:16.883Z,13.25
2017-04-04T23:47:14.371Z,13.55
2017-04-04T23:48:12.575Z,13.77
2017-04-04T23:49:10.043Z,13.08
2017-04-04T23:50:07.507Z,13.57
2017-04-04T23:51:05.727Z,13.08
2017-04-04T23:52:03.200Z,12.45
2017-04-04T23:53:01.411Z,13.92
2017-04-04T23:53:58.883Z,13.92
2017-04-04T23:54:56.348Z,13.87
2017-04-04T23:55:54.573Z,13.73
2017-04-04T23:56:52.035Z,14.38
2017-04-04T23:57:50.251Z,14.55
2017-04-04T23:58:47.714Z,14.28
2017-04-04T23:59:45.191Z,14.05
